sensor_id;sensor_type;location;lat;lon;timestamp;P1;durP1;ratioP1;P2;durP2;ratioP2
49153;SDS011;49455;52.252;9.124;2023-03-24T00:03:25;5.85;;;2.40;;
49153;SDS011;49455;52.252;9.124;2023-03-24T00:08:27;7.93;;;2.70;;
49153;SDS011;49455;52.252;9.124;2023-03-24T00:13:29;7.13;;;2.58;;
49153;SDS011;49455;52.252;9.124;2023-03-24T00:18:30;7.93;;;2.80;;
49153;SDS011;49455;52.252;9.124;2023-03-24T00:23:30;7.07;;;2.50;;
49153;SDS011;49455;52.252;9.124;2023-03-24T00:28:32;4.47;;;2.25;;
49153;SDS011;49455;52.252;9.124;2023-03-24T00:33:33;8.02;;;2.88;;
49153;SDS011;49455;52.252;9.124;2023-03-24T00:38:35;8.27;;;2.75;;
49153;SDS011;49455;52.252;9.124;2023-03-24T00:43:35;10.18;;;3.10;;
49153;SDS011;49455;52.252;9.124;2023-03-24T00:48:36;5.32;;;2.60;;
49153;SDS011;49455;52.252;9.124;2023-03-24T00:53:37;4.85;;;2.80;;
49153;SDS011;49455;52.252;9.124;2023-03-24T00:58:38;6.43;;;2.80;;
49153;SDS011;49455;52.252;9.124;2023-03-24T01:03:39;7.18;;;2.83;;
49153;SDS011;49455;52.252;9.124;2023-03-24T01:08:39;4.68;;;2.63;;
49153;SDS011;49455;52.252;9.124;2023-03-24T01:13:40;7.53;;;2.95;;
49153;SDS011;49455;52.252;9.124;2023-03-24T01:18:40;5.93;;;2.17;;
49153;SDS011;49455;52.252;9.124;2023-03-24T01:23:41;5.65;;;2.85;;
49153;SDS011;49455;52.252;9.124;2023-03-24T01:28:41;6.10;;;3.03;;
49153;SDS011;49455;52.252;9.124;2023-03-24T01:33:42;8.15;;;2.80;;
49153;SDS011;49455;52.252;9.124;2023-03-24T01:38:42;4.47;;;2.65;;
49153;SDS011;49455;52.252;9.124;2023-03-24T01:43:43;8.63;;;3.13;;
49153;SDS011;49455;52.252;9.124;2023-03-24T01:49:00;6.18;;;2.88;;
49153;SDS011;49455;52.252;9.124;2023-03-24T01:59:24;6.13;;;2.55;;
49153;SDS011;49455;52.252;9.124;2023-03-24T02:04:52;5.18;;;2.72;;
49153;SDS011;49455;52.252;9.124;2023-03-24T02:10:00;4.63;;;2.58;;
49153;SDS011;49455;52.252;9.124;2023-03-24T02:15:05;3.95;;;2.72;;
49153;SDS011;49455;52.252;9.124;2023-03-24T02:25:49;4.75;;;2.42;;
49153;SDS011;49455;52.252;9.124;2023-03-24T02:31:25;3.75;;;2.35;;
49153;SDS011;49455;52.252;9.124;2023-03-24T02:47:29;5.65;;;2.40;;
49153;SDS011;49455;52.252;9.124;2023-03-24T02:52:39;4.05;;;2.30;;
49153;SDS011;49455;52.252;9.124;2023-03-24T02:57:48;4.00;;;2.65;;
49153;SDS011;49455;52.252;9.124;2023-03-24T03:03:41;3.97;;;2.15;;
49153;SDS011;49455;52.252;9.124;2023-03-24T03:08:50;4.82;;;2.60;;
49153;SDS011;49455;52.252;9.124;2023-03-24T03:18:56;4.10;;;2.55;;
49153;SDS011;49455;52.252;9.124;2023-03-24T03:24:02;4.15;;;2.38;;
49153;SDS011;49455;52.252;9.124;2023-03-24T03:29:10;4.43;;;2.50;;
49153;SDS011;49455;52.252;9.124;2023-03-24T03:34:19;6.15;;;2.72;;
49153;SDS011;49455;52.252;9.124;2023-03-24T03:39:28;4.10;;;2.88;;
49153;SDS011;49455;52.252;9.124;2023-03-24T03:44:35;5.88;;;3.30;;
49153;SDS011;49455;52.252;9.124;2023-03-24T03:49:35;4.28;;;3.13;;
49153;SDS011;49455;52.252;9.124;2023-03-24T03:54:36;5.70;;;3.30;;
49153;SDS011;49455;52.252;9.124;2023-03-24T03:59:39;6.30;;;3.30;;
49153;SDS011;49455;52.252;9.124;2023-03-24T04:15:32;6.30;;;4.30;;
49153;SDS011;49455;52.252;9.124;2023-03-24T04:30:59;6.50;;;4.80;;
49153;SDS011;49455;52.252;9.124;2023-03-24T04:36:08;6.82;;;5.38;;
49153;SDS011;49455;52.252;9.124;2023-03-24T04:41:45;9.30;;;5.70;;
49153;SDS011;49455;52.252;9.124;2023-03-24T04:46:55;10.23;;;6.40;;
49153;SDS011;49455;52.252;9.124;2023-03-24T04:51:57;7.97;;;6.68;;
49153;SDS011;49455;52.252;9.124;2023-03-24T04:57:00;7.28;;;6.40;;
49153;SDS011;49455;52.252;9.124;2023-03-24T05:02:13;8.95;;;6.47;;
49153;SDS011;49455;52.252;9.124;2023-03-24T05:07:18;9.85;;;7.15;;
49153;SDS011;49455;52.252;9.124;2023-03-24T05:12:22;9.73;;;6.63;;
49153;SDS011;49455;52.252;9.124;2023-03-24T05:17:41;7.30;;;5.88;;
49153;SDS011;49455;52.252;9.124;2023-03-24T05:22:42;8.73;;;6.20;;
49153;SDS011;49455;52.252;9.124;2023-03-24T05:27:43;9.33;;;5.60;;
49153;SDS011;49455;52.252;9.124;2023-03-24T05:32:56;7.65;;;5.40;;
49153;SDS011;49455;52.252;9.124;2023-03-24T05:37:57;6.72;;;5.20;;
49153;SDS011;49455;52.252;9.124;2023-03-24T05:42:57;6.30;;;4.80;;
49153;SDS011;49455;52.252;9.124;2023-03-24T05:48:01;7.38;;;4.63;;
49153;SDS011;49455;52.252;9.124;2023-03-24T05:53:18;5.05;;;4.55;;
49153;SDS011;49455;52.252;9.124;2023-03-24T05:58:42;6.30;;;4.60;;
49153;SDS011;49455;52.252;9.124;2023-03-24T06:03:43;4.95;;;4.00;;
49153;SDS011;49455;52.252;9.124;2023-03-24T06:08:47;4.28;;;3.60;;
49153;SDS011;49455;52.252;9.124;2023-03-24T06:13:48;2.90;;;2.15;;
49153;SDS011;49455;52.252;9.124;2023-03-24T06:18:49;4.80;;;2.50;;
49153;SDS011;49455;52.252;9.124;2023-03-24T06:24:09;2.67;;;1.65;;
49153;SDS011;49455;52.252;9.124;2023-03-24T06:29:10;2.13;;;1.90;;
49153;SDS011;49455;52.252;9.124;2023-03-24T06:34:12;5.32;;;2.30;;
49153;SDS011;49455;52.252;9.124;2023-03-24T06:39:13;4.90;;;2.30;;
49153;SDS011;49455;52.252;9.124;2023-03-24T06:44:14;4.03;;;2.50;;
49153;SDS011;49455;52.252;9.124;2023-03-24T06:49:16;2.60;;;2.30;;
49153;SDS011;49455;52.252;9.124;2023-03-24T06:54:16;4.28;;;2.63;;
49153;SDS011;49455;52.252;9.124;2023-03-24T06:59:17;4.57;;;2.72;;
49153;SDS011;49455;52.252;9.124;2023-03-24T07:04:18;2.78;;;2.13;;
49153;SDS011;49455;52.252;9.124;2023-03-24T07:09:28;3.13;;;1.83;;
49153;SDS011;49455;52.252;9.124;2023-03-24T07:14:28;2.33;;;1.60;;
49153;SDS011;49455;52.252;9.124;2023-03-24T07:19:30;3.15;;;1.70;;
49153;SDS011;49455;52.252;9.124;2023-03-24T07:24:48;2.53;;;1.60;;
49153;SDS011;49455;52.252;9.124;2023-03-24T07:30:09;4.45;;;1.40;;
49153;SDS011;49455;52.252;9.124;2023-03-24T07:35:15;2.75;;;1.60;;
49153;SDS011;49455;52.252;9.124;2023-03-24T07:40:16;1.77;;;1.35;;
49153;SDS011;49455;52.252;9.124;2023-03-24T07:45:18;4.50;;;2.38;;
49153;SDS011;49455;52.252;9.124;2023-03-24T07:50:19;4.35;;;1.80;;
49153;SDS011;49455;52.252;9.124;2023-03-24T07:55:19;5.47;;;1.83;;
49153;SDS011;49455;52.252;9.124;2023-03-24T08:00:40;8.20;;;2.65;;
49153;SDS011;49455;52.252;9.124;2023-03-24T08:05:53;3.80;;;1.80;;
49153;SDS011;49455;52.252;9.124;2023-03-24T08:11:05;6.85;;;2.65;;
49153;SDS011;49455;52.252;9.124;2023-03-24T08:16:05;4.88;;;1.90;;
49153;SDS011;49455;52.252;9.124;2023-03-24T08:21:06;7.22;;;2.58;;
49153;SDS011;49455;52.252;9.124;2023-03-24T08:26:07;10.95;;;3.67;;
49153;SDS011;49455;52.252;9.124;2023-03-24T08:31:07;11.25;;;3.63;;
49153;SDS011;49455;52.252;9.124;2023-03-24T08:36:08;14.43;;;3.58;;
49153;SDS011;49455;52.252;9.124;2023-03-24T08:41:08;10.38;;;2.88;;
49153;SDS011;49455;52.252;9.124;2023-03-24T08:46:09;9.38;;;3.35;;
49153;SDS011;49455;52.252;9.124;2023-03-24T08:51:10;10.10;;;3.58;;
49153;SDS011;49455;52.252;9.124;2023-03-24T08:56:15;10.57;;;3.22;;
49153;SDS011;49455;52.252;9.124;2023-03-24T09:01:16;9.85;;;3.42;;
49153;SDS011;49455;52.252;9.124;2023-03-24T09:06:17;13.10;;;3.60;;
49153;SDS011;49455;52.252;9.124;2023-03-24T09:11:18;10.50;;;3.38;;
49153;SDS011;49455;52.252;9.124;2023-03-24T09:16:20;10.25;;;3.90;;
49153;SDS011;49455;52.252;9.124;2023-03-24T09:21:21;10.63;;;3.53;;
49153;SDS011;49455;52.252;9.124;2023-03-24T09:26:22;16.15;;;4.40;;
49153;SDS011;49455;52.252;9.124;2023-03-24T09:31:23;12.90;;;3.47;;
49153;SDS011;49455;52.252;9.124;2023-03-24T09:36:23;13.75;;;4.22;;
49153;SDS011;49455;52.252;9.124;2023-03-24T09:41:28;14.65;;;4.05;;
49153;SDS011;49455;52.252;9.124;2023-03-24T09:46:34;9.60;;;3.60;;
49153;SDS011;49455;52.252;9.124;2023-03-24T09:51:39;11.00;;;3.38;;
49153;SDS011;49455;52.252;9.124;2023-03-24T09:56:43;10.75;;;3.67;;
49153;SDS011;49455;52.252;9.124;2023-03-24T10:01:45;13.13;;;3.72;;
49153;SDS011;49455;52.252;9.124;2023-03-24T10:06:47;9.02;;;3.47;;
49153;SDS011;49455;52.252;9.124;2023-03-24T10:22:36;6.82;;;3.40;;
49153;SDS011;49455;52.252;9.124;2023-03-24T10:32:59;10.30;;;3.15;;
49153;SDS011;49455;52.252;9.124;2023-03-24T10:37:59;13.23;;;3.42;;
49153;SDS011;49455;52.252;9.124;2023-03-24T10:43:05;8.88;;;3.22;;
49153;SDS011;49455;52.252;9.124;2023-03-24T10:48:07;8.43;;;3.30;;
49153;SDS011;49455;52.252;9.124;2023-03-24T10:53:08;16.45;;;3.63;;
49153;SDS011;49455;52.252;9.124;2023-03-24T10:58:23;7.78;;;2.50;;
49153;SDS011;49455;52.252;9.124;2023-03-24T11:03:26;10.50;;;3.83;;
49153;SDS011;49455;52.252;9.124;2023-03-24T11:08:34;12.63;;;3.83;;
49153;SDS011;49455;52.252;9.124;2023-03-24T11:13:38;9.25;;;2.78;;
49153;SDS011;49455;52.252;9.124;2023-03-24T11:19:46;12.52;;;3.00;;
49153;SDS011;49455;52.252;9.124;2023-03-24T11:24:18;12.65;;;2.60;;
49153;SDS011;49455;52.252;9.124;2023-03-24T11:29:21;9.65;;;2.80;;
49153;SDS011;49455;52.252;9.124;2023-03-24T11:34:24;11.90;;;3.03;;
49153;SDS011;49455;52.252;9.124;2023-03-24T11:39:29;6.93;;;2.42;;
49153;SDS011;49455;52.252;9.124;2023-03-24T11:49:49;6.97;;;2.05;;
49153;SDS011;49455;52.252;9.124;2023-03-24T11:54:53;9.55;;;1.85;;
49153;SDS011;49455;52.252;9.124;2023-03-24T11:59:59;9.98;;;2.25;;
49153;SDS011;49455;52.252;9.124;2023-03-24T12:10:42;8.80;;;2.25;;
49153;SDS011;49455;52.252;9.124;2023-03-24T12:16:04;5.60;;;1.83;;
49153;SDS011;49455;52.252;9.124;2023-03-24T12:26:27;9.77;;;2.63;;
49153;SDS011;49455;52.252;9.124;2023-03-24T12:37:03;6.22;;;1.70;;
49153;SDS011;49455;52.252;9.124;2023-03-24T12:42:33;7.22;;;1.63;;
49153;SDS011;49455;52.252;9.124;2023-03-24T13:03:13;8.68;;;1.60;;
49153;SDS011;49455;52.252;9.124;2023-03-24T13:08:23;8.80;;;2.13;;
49153;SDS011;49455;52.252;9.124;2023-03-24T13:13:32;7.45;;;1.58;;
49153;SDS011;49455;52.252;9.124;2023-03-24T13:18:41;6.97;;;1.95;;
49153;SDS011;49455;52.252;9.124;2023-03-24T13:34:21;11.45;;;2.80;;
49153;SDS011;49455;52.252;9.124;2023-03-24T13:39:26;7.85;;;1.85;;
49153;SDS011;49455;52.252;9.124;2023-03-24T13:44:29;10.93;;;2.10;;
49153;SDS011;49455;52.252;9.124;2023-03-24T13:49:42;7.90;;;2.13;;
49153;SDS011;49455;52.252;9.124;2023-03-24T13:54:51;7.78;;;1.88;;
49153;SDS011;49455;52.252;9.124;2023-03-24T14:15:26;8.15;;;2.50;;
49153;SDS011;49455;52.252;9.124;2023-03-24T14:20:33;10.15;;;2.53;;
49153;SDS011;49455;52.252;9.124;2023-03-24T14:25:37;7.32;;;1.77;;
49153;SDS011;49455;52.252;9.124;2023-03-24T14:30:38;6.75;;;2.13;;
49153;SDS011;49455;52.252;9.124;2023-03-24T14:36:02;4.30;;;1.45;;
49153;SDS011;49455;52.252;9.124;2023-03-24T14:41:05;7.63;;;2.08;;
49153;SDS011;49455;52.252;9.124;2023-03-24T14:51:32;5.43;;;1.70;;
49153;SDS011;49455;52.252;9.124;2023-03-24T14:56:36;5.68;;;1.70;;
49153;SDS011;49455;52.252;9.124;2023-03-24T15:01:39;9.50;;;2.30;;
49153;SDS011;49455;52.252;9.124;2023-03-24T15:06:43;10.90;;;2.50;;
49153;SDS011;49455;52.252;9.124;2023-03-24T15:11:45;10.10;;;2.83;;
49153;SDS011;49455;52.252;9.124;2023-03-24T15:16:51;6.43;;;2.28;;
49153;SDS011;49455;52.252;9.124;2023-03-24T15:22:01;9.52;;;2.05;;
49153;SDS011;49455;52.252;9.124;2023-03-24T15:32:04;12.60;;;2.80;;
49153;SDS011;49455;52.252;9.124;2023-03-24T15:37:06;6.60;;;1.97;;
49153;SDS011;49455;52.252;9.124;2023-03-24T15:42:20;10.15;;;2.20;;
49153;SDS011;49455;52.252;9.124;2023-03-24T15:52:32;6.82;;;2.00;;
49153;SDS011;49455;52.252;9.124;2023-03-24T15:57:41;8.23;;;1.95;;
49153;SDS011;49455;52.252;9.124;2023-03-24T16:02:48;4.43;;;1.30;;
49153;SDS011;49455;52.252;9.124;2023-03-24T16:12:54;2.97;;;1.10;;
49153;SDS011;49455;52.252;9.124;2023-03-24T16:17:54;2.78;;;1.23;;
49153;SDS011;49455;52.252;9.124;2023-03-24T16:22:55;4.53;;;1.30;;
49153;SDS011;49455;52.252;9.124;2023-03-24T16:27:55;2.15;;;1.00;;
49153;SDS011;49455;52.252;9.124;2023-03-24T16:32:55;2.70;;;0.93;;
49153;SDS011;49455;52.252;9.124;2023-03-24T16:37:56;1.75;;;1.27;;
49153;SDS011;49455;52.252;9.124;2023-03-24T16:42:56;3.65;;;1.35;;
49153;SDS011;49455;52.252;9.124;2023-03-24T16:47:57;2.08;;;0.95;;
49153;SDS011;49455;52.252;9.124;2023-03-24T16:52:58;4.53;;;1.15;;
49153;SDS011;49455;52.252;9.124;2023-03-24T16:57:59;1.98;;;1.33;;
49153;SDS011;49455;52.252;9.124;2023-03-24T17:02:59;2.13;;;1.00;;
49153;SDS011;49455;52.252;9.124;2023-03-24T17:08:00;4.03;;;1.73;;
49153;SDS011;49455;52.252;9.124;2023-03-24T17:13:00;2.40;;;1.67;;
49153;SDS011;49455;52.252;9.124;2023-03-24T17:18:01;4.50;;;2.00;;
49153;SDS011;49455;52.252;9.124;2023-03-24T17:23:01;5.65;;;1.88;;
49153;SDS011;49455;52.252;9.124;2023-03-24T17:28:02;1.63;;;1.25;;
49153;SDS011;49455;52.252;9.124;2023-03-24T17:33:02;5.45;;;1.83;;
49153;SDS011;49455;52.252;9.124;2023-03-24T17:38:03;1.75;;;1.40;;
49153;SDS011;49455;52.252;9.124;2023-03-24T17:43:03;5.22;;;2.67;;
49153;SDS011;49455;52.252;9.124;2023-03-24T17:48:04;2.92;;;1.50;;
49153;SDS011;49455;52.252;9.124;2023-03-24T17:53:04;3.72;;;1.58;;
49153;SDS011;49455;52.252;9.124;2023-03-24T17:58:04;3.50;;;1.38;;
49153;SDS011;49455;52.252;9.124;2023-03-24T18:03:05;2.42;;;1.77;;
49153;SDS011;49455;52.252;9.124;2023-03-24T18:08:05;2.53;;;1.60;;
49153;SDS011;49455;52.252;9.124;2023-03-24T18:13:06;4.10;;;1.70;;
49153;SDS011;49455;52.252;9.124;2023-03-24T18:18:06;4.35;;;2.15;;
49153;SDS011;49455;52.252;9.124;2023-03-24T18:23:07;4.88;;;2.40;;
49153;SDS011;49455;52.252;9.124;2023-03-24T18:28:07;2.70;;;1.92;;
49153;SDS011;49455;52.252;9.124;2023-03-24T18:33:07;4.72;;;2.30;;
49153;SDS011;49455;52.252;9.124;2023-03-24T18:38:08;4.10;;;1.80;;
49153;SDS011;49455;52.252;9.124;2023-03-24T18:43:08;5.70;;;2.13;;
49153;SDS011;49455;52.252;9.124;2023-03-24T18:48:09;6.65;;;2.60;;
49153;SDS011;49455;52.252;9.124;2023-03-24T18:53:09;9.25;;;3.25;;
49153;SDS011;49455;52.252;9.124;2023-03-24T18:58:09;6.75;;;2.80;;
49153;SDS011;49455;52.252;9.124;2023-03-24T19:03:10;6.05;;;2.45;;
49153;SDS011;49455;52.252;9.124;2023-03-24T19:08:10;5.75;;;3.47;;
49153;SDS011;49455;52.252;9.124;2023-03-24T19:13:11;5.35;;;3.00;;
49153;SDS011;49455;52.252;9.124;2023-03-24T19:18:13;6.68;;;2.75;;
49153;SDS011;49455;52.252;9.124;2023-03-24T19:23:14;5.47;;;3.05;;
49153;SDS011;49455;52.252;9.124;2023-03-24T19:28:14;4.70;;;2.38;;
49153;SDS011;49455;52.252;9.124;2023-03-24T19:33:15;6.28;;;2.70;;
49153;SDS011;49455;52.252;9.124;2023-03-24T19:38:15;4.85;;;2.63;;
49153;SDS011;49455;52.252;9.124;2023-03-24T19:43:17;6.47;;;2.30;;
49153;SDS011;49455;52.252;9.124;2023-03-24T19:48:18;6.03;;;2.30;;
49153;SDS011;49455;52.252;9.124;2023-03-24T19:53:19;4.53;;;2.78;;
49153;SDS011;49455;52.252;9.124;2023-03-24T19:58:20;6.78;;;2.78;;
49153;SDS011;49455;52.252;9.124;2023-03-24T20:03:20;5.55;;;2.35;;
49153;SDS011;49455;52.252;9.124;2023-03-24T20:08:21;6.43;;;2.67;;
49153;SDS011;49455;52.252;9.124;2023-03-24T20:13:22;3.53;;;2.00;;
49153;SDS011;49455;52.252;9.124;2023-03-24T20:18:22;2.53;;;1.85;;
49153;SDS011;49455;52.252;9.124;2023-03-24T20:23:22;2.75;;;1.70;;
49153;SDS011;49455;52.252;9.124;2023-03-24T20:28:23;2.28;;;1.50;;
49153;SDS011;49455;52.252;9.124;2023-03-24T20:33:23;4.03;;;2.05;;
49153;SDS011;49455;52.252;9.124;2023-03-24T20:38:24;4.20;;;1.77;;
49153;SDS011;49455;52.252;9.124;2023-03-24T20:43:25;3.10;;;1.50;;
49153;SDS011;49455;52.252;9.124;2023-03-24T20:48:26;7.22;;;1.52;;
49153;SDS011;49455;52.252;9.124;2023-03-24T20:53:26;5.15;;;1.70;;
49153;SDS011;49455;52.252;9.124;2023-03-24T20:58:27;3.63;;;1.35;;
49153;SDS011;49455;52.252;9.124;2023-03-24T21:03:27;4.63;;;1.80;;
49153;SDS011;49455;52.252;9.124;2023-03-24T21:08:28;4.60;;;1.25;;
49153;SDS011;49455;52.252;9.124;2023-03-24T21:13:28;10.35;;;2.05;;
49153;SDS011;49455;52.252;9.124;2023-03-24T21:18:29;7.97;;;1.70;;
49153;SDS011;49455;52.252;9.124;2023-03-24T21:23:30;3.33;;;1.70;;
49153;SDS011;49455;52.252;9.124;2023-03-24T21:28:31;6.28;;;2.00;;
49153;SDS011;49455;52.252;9.124;2023-03-24T21:33:33;5.73;;;1.67;;
49153;SDS011;49455;52.252;9.124;2023-03-24T21:38:33;3.95;;;1.75;;
49153;SDS011;49455;52.252;9.124;2023-03-24T21:43:33;4.75;;;1.67;;
49153;SDS011;49455;52.252;9.124;2023-03-24T21:48:35;5.68;;;1.60;;
49153;SDS011;49455;52.252;9.124;2023-03-24T21:53:36;6.53;;;1.90;;
49153;SDS011;49455;52.252;9.124;2023-03-24T21:58:36;4.82;;;1.58;;
49153;SDS011;49455;52.252;9.124;2023-03-24T22:03:37;4.60;;;1.70;;
49153;SDS011;49455;52.252;9.124;2023-03-24T22:08:37;3.65;;;1.65;;
49153;SDS011;49455;52.252;9.124;2023-03-24T22:13:38;4.88;;;1.83;;
49153;SDS011;49455;52.252;9.124;2023-03-24T22:18:38;5.75;;;1.85;;
49153;SDS011;49455;52.252;9.124;2023-03-24T22:23:39;6.38;;;2.28;;
49153;SDS011;49455;52.252;9.124;2023-03-24T22:28:40;6.25;;;2.30;;
49153;SDS011;49455;52.252;9.124;2023-03-24T22:33:41;5.10;;;1.83;;
49153;SDS011;49455;52.252;9.124;2023-03-24T22:38:42;5.80;;;2.10;;
49153;SDS011;49455;52.252;9.124;2023-03-24T22:43:42;4.15;;;1.73;;
49153;SDS011;49455;52.252;9.124;2023-03-24T22:48:42;7.93;;;2.83;;
49153;SDS011;49455;52.252;9.124;2023-03-24T22:53:46;9.75;;;1.67;;
49153;SDS011;49455;52.252;9.124;2023-03-24T22:58:47;7.00;;;2.00;;
49153;SDS011;49455;52.252;9.124;2023-03-24T23:03:49;4.88;;;1.40;;
49153;SDS011;49455;52.252;9.124;2023-03-24T23:08:49;3.67;;;1.40;;
49153;SDS011;49455;52.252;9.124;2023-03-24T23:13:50;4.70;;;1.92;;
49153;SDS011;49455;52.252;9.124;2023-03-24T23:18:50;4.50;;;1.58;;
49153;SDS011;49455;52.252;9.124;2023-03-24T23:23:50;4.10;;;1.70;;
49153;SDS011;49455;52.252;9.124;2023-03-24T23:28:51;4.13;;;1.75;;
49153;SDS011;49455;52.252;9.124;2023-03-24T23:33:53;5.20;;;1.60;;
49153;SDS011;49455;52.252;9.124;2023-03-24T23:38:54;5.32;;;1.52;;
49153;SDS011;49455;52.252;9.124;2023-03-24T23:43:55;6.30;;;1.95;;
49153;SDS011;49455;52.252;9.124;2023-03-24T23:48:55;4.72;;;1.90;;
49153;SDS011;49455;52.252;9.124;2023-03-24T23:53:56;7.70;;;2.50;;
49153;SDS011;49455;52.252;9.124;2023-03-24T23:58:56;5.05;;;1.90;;
